Time;durP1;ratioP1;P1;durP2;ratioP2;P2;SDS_P1;SDS_P2;PMS_P1;PMS_P2;Temp;Humidity;BMP_temperature;BMP_pressure;BME280_temperature;BME280_humidity;BME280_pressure;Samples;Min_cycle;Max_cycle;Signal;HPM_P1;HPM_P2
2022/04/07 00:00:43;;;;;;;27.15;4.70;;;7.50;80.30;;;;;;4096564;28;20030;-86
2022/04/07 00:02:44;;;;;;;28.55;5.22;;;7.50;80.30;;;;;;4097737;28;20110;-87
2022/04/07 00:04:44;;;;;;;39.03;5.25;;;7.50;80.30;;;;;;4098506;28;20059;-88
2022/04/07 00:06:45;;;;;;;30.35;4.72;;;7.50;80.30;;;;;;4094386;28;20085;-84
2022/04/07 00:08:46;;;;;;;29.48;5.00;;;7.50;80.40;;;;;;4097479;28;20059;-86
2022/04/07 00:10:48;;;;;;;27.80;4.60;;;7.50;80.40;;;;;;4095225;28;20098;-88
2022/04/07 00:12:48;;;;;;;32.55;5.13;;;7.50;80.30;;;;;;4097803;28;20062;-86
2022/04/07 00:14:49;;;;;;;34.90;5.63;;;7.50;80.50;;;;;;4097730;28;20050;-86
2022/04/07 00:16:50;;;;;;;49.10;5.68;;;7.60;80.40;;;;;;4099790;28;20035;-87
2022/04/07 00:18:51;;;;;;;40.42;5.28;;;7.50;80.40;;;;;;4096844;28;20126;-86
2022/04/07 00:20:52;;;;;;;38.63;5.30;;;7.60;80.40;;;;;;4095072;28;20134;-86
2022/04/07 00:22:53;;;;;;;38.90;4.60;;;7.60;80.40;;;;;;4098852;28;20085;-86
2022/04/07 00:24:53;;;;;;;37.85;5.43;;;7.60;80.40;;;;;;4096122;28;20062;-87
2022/04/07 00:26:54;;;;;;;37.22;5.05;;;7.60;80.40;;;;;;4097676;28;20131;-88
2022/04/07 00:28:55;;;;;;;38.00;4.82;;;7.70;80.40;;;;;;4096611;28;20118;-87
2022/04/07 00:30:58;;;;;;;39.92;6.28;;;7.60;80.30;;;;;;4095207;28;20046;-88
2022/04/07 00:32:58;;;;;;;35.35;4.93;;;7.60;80.20;;;;;;4095669;28;20042;-86
2022/04/07 00:34:59;;;;;;;41.30;4.90;;;7.70;80.30;;;;;;4098522;28;20055;-87
2022/04/07 00:37:00;;;;;;;26.83;4.07;;;7.60;80.20;;;;;;4097446;28;20078;-87
2022/04/07 00:39:02;;;;;;;31.60;4.30;;;7.60;80.10;;;;;;4109288;28;20042;-87
2022/04/07 00:41:03;;;;;;;22.67;4.13;;;7.60;80.10;;;;;;4096589;28;20114;-86
2022/04/07 00:43:04;;;;;;;34.03;4.53;;;7.60;80.20;;;;;;4101909;28;20067;-87
2022/04/07 00:45:07;;;;;;;27.02;3.70;;;7.60;79.90;;;;;;4096639;28;20041;-87
2022/04/07 00:47:08;;;;;;;20.65;3.53;;;7.60;79.90;;;;;;4096749;28;20038;-88
2022/04/07 00:49:12;;;;;;;46.72;4.32;;;7.70;79.80;;;;;;4083304;28;20716;-88
2022/04/07 00:51:16;;;;;;;25.60;3.42;;;7.60;79.70;;;;;;4093959;28;20059;-88
2022/04/07 00:53:23;;;;;;;17.92;2.67;;;7.60;79.70;;;;;;4094868;28;20049;-87
2022/04/07 00:55:30;;;;;;;28.98;3.50;;;7.60;79.60;;;;;;4095557;28;20086;-87
2022/04/07 00:57:49;;;;;;;23.23;3.80;;;7.60;79.50;;;;;;4096290;28;20035;-87
2022/04/07 00:59:53;;;;;;;36.83;3.85;;;7.60;79.50;;;;;;4078098;28;20162;-87
2022/04/07 01:01:54;;;;;;;27.38;3.60;;;7.60;79.50;;;;;;4095299;28;20121;-86
2022/04/07 01:03:57;;;;;;;23.92;4.15;;;7.60;79.50;;;;;;4095632;28;20049;-87
2022/04/07 01:05:59;;;;;;;27.48;3.63;;;7.60;79.50;;;;;;4095731;28;20597;-87
2022/04/07 01:08:00;;;;;;;23.48;3.28;;;7.60;79.40;;;;;;4097635;28;20031;-87
2022/04/07 01:10:01;;;;;;;23.50;3.78;;;7.50;79.50;;;;;;4095640;28;20062;-87
2022/04/07 01:12:02;;;;;;;38.95;4.20;;;7.60;80.30;;;;;;4096263;28;20510;-86
2022/04/07 01:14:05;;;;;;;25.90;3.40;;;7.50;79.60;;;;;;4098436;28;20055;-87
2022/04/07 01:16:08;;;;;;;24.95;3.30;;;7.50;79.80;;;;;;4094258;28;20742;-87
2022/04/07 01:18:09;;;;;;;29.55;3.40;;;7.50;79.90;;;;;;4103610;28;20031;-87
2022/04/07 01:20:11;;;;;;;31.50;4.30;;;7.60;79.90;;;;;;4103782;28;20035;-87
2022/04/07 01:22:12;;;;;;;20.73;3.40;;;7.50;79.90;;;;;;4095545;28;20031;-87
2022/04/07 01:24:13;;;;;;;27.38;3.47;;;7.60;80.00;;;;;;4097746;28;20743;-87
2022/04/07 01:26:17;;;;;;;22.80;3.45;;;7.60;80.00;;;;;;4099157;28;20147;-87
2022/04/07 01:28:18;;;;;;;25.63;3.85;;;7.50;79.90;;;;;;4096283;28;20028;-87
2022/04/07 01:30:18;;;;;;;24.77;3.10;;;7.60;80.10;;;;;;4096298;28;20041;-87
2022/04/07 01:32:38;;;;;;;25.50;3.72;;;7.60;80.00;;;;;;4099337;28;20039;-87
2022/04/07 01:34:40;;;;;;;17.65;2.90;;;7.60;80.00;;;;;;4099319;28;20038;-87
2022/04/07 01:36:51;;;;;;;17.38;3.40;;;7.60;79.90;;;;;;4100589;28;20027;-87
2022/04/07 01:39:00;;;;;;;23.30;3.70;;;7.60;79.80;;;;;;4102602;28;20039;-86
2022/04/07 01:41:01;;;;;;;15.48;2.88;;;7.70;79.80;;;;;;4131337;28;20010;-86
2022/04/07 01:43:05;;;;;;;20.75;3.70;;;7.60;79.70;;;;;;4098691;28;20126;-88
2022/04/07 01:45:07;;;;;;;18.67;3.10;;;7.60;79.60;;;;;;4098952;28;20039;-88
2022/04/07 01:47:12;;;;;;;21.27;2.72;;;7.60;79.60;;;;;;4098910;28;20483;-88
2022/04/07 01:49:12;;;;;;;21.58;3.47;;;7.70;79.70;;;;;;4087373;28;20710;-87
2022/04/07 01:51:14;;;;;;;17.33;3.38;;;7.60;79.70;;;;;;4094989;28;20069;-87
2022/04/07 01:53:15;;;;;;;16.60;2.55;;;7.60;79.60;;;;;;4096329;28;20053;-86
2022/04/07 01:55:16;;;;;;;21.15;2.75;;;7.70;79.70;;;;;;4098108;28;20035;-87
2022/04/07 01:57:23;;;;;;;14.65;2.47;;;7.60;79.50;;;;;;4097714;28;20483;-86
2022/04/07 01:59:25;;;;;;;17.35;2.55;;;7.60;79.50;;;;;;4096128;28;20519;-86
2022/04/07 02:01:27;;;;;;;12.85;2.58;;;7.60;79.50;;;;;;4092940;28;20035;-87
2022/04/07 02:03:28;;;;;;;13.55;2.88;;;7.60;79.40;;;;;;4098141;28;20026;-86
2022/04/07 02:05:28;;;;;;;12.02;2.42;;;7.60;79.50;;;;;;4096632;28;20027;-86
2022/04/07 02:07:31;;;;;;;18.98;2.58;;;7.60;79.40;;;;;;4095249;28;20114;-87
2022/04/07 02:09:33;;;;;;;9.75;2.70;;;7.60;79.40;;;;;;4094402;28;20126;-86
2022/04/07 02:11:35;;;;;;;12.23;2.58;;;7.50;79.40;;;;;;4095066;28;20520;-85
2022/04/07 02:13:38;;;;;;;13.23;2.55;;;7.50;79.30;;;;;;4095912;28;20035;-87
2022/04/07 02:15:38;;;;;;;9.45;1.90;;;7.50;79.30;;;;;;4099576;28;20466;-85
2022/04/07 02:17:39;;;;;;;7.93;2.25;;;7.50;79.30;;;;;;4095721;28;20046;-86
2022/04/07 02:19:40;;;;;;;11.60;2.55;;;7.50;79.40;;;;;;4094963;28;20046;-85
2022/04/07 02:21:41;;;;;;;7.70;2.45;;;7.50;79.30;;;;;;4106716;28;20035;-86
2022/04/07 02:23:42;;;;;;;10.70;2.25;;;7.50;79.30;;;;;;4092009;28;20038;-86
2022/04/07 02:25:42;;;;;;;10.40;2.15;;;7.50;79.40;;;;;;4095111;28;20035;-87
2022/04/07 02:27:44;;;;;;;7.07;1.98;;;7.50;80.10;;;;;;4095880;28;20030;-86
2022/04/07 02:29:45;;;;;;;10.40;1.90;;;7.50;79.40;;;;;;4102506;28;20129;-86
2022/04/07 02:31:46;;;;;;;9.10;1.80;;;7.50;79.40;;;;;;4104439;28;20134;-86
2022/04/07 02:33:46;;;;;;;10.15;2.13;;;7.50;79.40;;;;;;4093440;28;20871;-86
2022/04/07 02:35:47;;;;;;;7.10;1.80;;;7.50;79.40;;;;;;4096498;28;20042;-86
2022/04/07 02:37:47;;;;;;;5.82;1.45;;;7.50;79.50;;;;;;4098573;28;20026;-87
2022/04/07 02:39:48;;;;;;;6.85;1.70;;;7.50;79.40;;;;;;4098070;28;20154;-86
2022/04/07 02:41:49;;;;;;;7.50;1.92;;;7.50;79.50;;;;;;4098374;28;20063;-87
2022/04/07 02:43:50;;;;;;;8.25;1.85;;;7.50;79.50;;;;;;4096695;28;20769;-86
2022/04/07 02:45:50;;;;;;;8.57;1.50;;;7.40;79.60;;;;;;4093125;28;20055;-86
2022/04/07 02:47:51;;;;;;;4.55;1.25;;;7.40;79.60;;;;;;4097247;28;20669;-87
2022/04/07 02:49:52;;;;;;;10.02;1.25;;;7.40;79.60;;;;;;4094706;28;20039;-86
2022/04/07 02:51:52;;;;;;;7.35;1.25;;;7.40;79.60;;;;;;4095368;28;20043;-86
2022/04/07 02:53:57;;;;;;;5.53;1.33;;;7.50;79.70;;;;;;4097233;28;21259;-86
2022/04/07 02:55:58;;;;;;;4.75;1.30;;;7.40;79.60;;;;;;4099257;28;20035;-85
2022/04/07 02:57:59;;;;;;;4.38;1.27;;;7.40;79.60;;;;;;4097015;28;20045;-85
2022/04/07 03:00:00;;;;;;;6.15;1.50;;;7.40;79.70;;;;;;4101373;28;20038;-85
2022/04/07 03:02:01;;;;;;;5.28;1.70;;;7.40;79.80;;;;;;4095773;28;20030;-84
2022/04/07 03:04:02;;;;;;;5.97;1.83;;;7.40;79.90;;;;;;4095877;28;20038;-85
2022/04/07 03:06:03;;;;;;;3.85;1.50;;;7.40;79.90;;;;;;4094725;28;20030;-85
2022/04/07 03:08:04;;;;;;;5.72;1.90;;;7.40;80.00;;;;;;4111919;28;20078;-84
2022/04/07 03:10:05;;;;;;;9.85;2.03;;;7.40;80.00;;;;;;4096654;28;20126;-85
2022/04/07 03:12:06;;;;;;;3.90;1.83;;;7.40;80.00;;;;;;4097797;28;20062;-84
2022/04/07 03:14:07;;;;;;;5.18;1.83;;;7.40;80.20;;;;;;4098962;28;20527;-83
2022/04/07 03:16:08;;;;;;;5.90;2.20;;;7.40;80.20;;;;;;4110918;28;20427;-84
2022/04/07 03:18:11;;;;;;;6.20;1.98;;;7.40;80.20;;;;;;4096826;28;20537;-84
2022/04/07 03:20:12;;;;;;;6.60;2.00;;;7.40;80.20;;;;;;4114019;28;20112;-83
2022/04/07 03:22:15;;;;;;;8.50;2.45;;;7.40;80.20;;;;;;4092709;28;20454;-85
2022/04/07 03:24:16;;;;;;;5.88;2.75;;;7.40;80.30;;;;;;4097681;28;20038;-85
2022/04/07 03:26:19;;;;;;;6.70;2.70;;;7.40;80.50;;;;;;4102637;28;20038;-85
2022/04/07 03:28:20;;;;;;;;;;;7.50;80.50;;;;;;4098367;28;20037;-85
2022/04/07 03:30:21;;;;;;;7.03;3.22;;;7.40;80.90;;;;;;4098140;28;19945;-85
2022/04/07 03:32:21;;;;;;;9.90;3.85;;;7.40;80.70;;;;;;4108197;28;20135;-85
2022/04/07 03:34:22;;;;;;;7.18;3.60;;;7.40;80.80;;;;;;4093977;28;20050;-83
2022/04/07 03:36:23;;;;;;;11.43;4.22;;;7.60;81.00;;;;;;4096843;28;20792;-83
2022/04/07 03:38:23;;;;;;;14.32;4.53;;;7.50;81.20;;;;;;4099231;28;20051;-85
2022/04/07 03:40:25;;;;;;;21.40;4.70;;;7.50;81.40;;;;;;4099917;28;20038;-84
2022/04/07 03:42:26;;;;;;;16.23;4.78;;;7.50;81.60;;;;;;4101369;28;20057;-85
2022/04/07 03:44:26;;;;;;;16.30;5.22;;;7.50;81.80;;;;;;4093243;28;20065;-85
2022/04/07 03:46:28;;;;;;;14.27;5.18;;;7.50;82.10;;;;;;4095472;28;20035;-83
2022/04/07 03:48:29;;;;;;;17.52;4.95;;;7.60;82.40;;;;;;4086773;28;20385;-85
2022/04/07 03:50:29;;;;;;;13.63;4.60;;;7.60;82.20;;;;;;4100061;28;20070;-84
2022/04/07 03:52:30;;;;;;;16.38;5.38;;;7.70;82.30;;;;;;4097068;28;20027;-84
2022/04/07 03:54:31;;;;;;;17.02;4.75;;;7.70;82.30;;;;;;4095346;28;20034;-86
2022/04/07 03:56:32;;;;;;;16.85;4.97;;;7.70;82.20;;;;;;4096700;28;20031;-84
2022/04/07 03:58:32;;;;;;;13.35;5.18;;;7.70;82.10;;;;;;4095853;28;20035;-85
2022/04/07 04:00:33;;;;;;;11.35;4.43;;;7.70;82.10;;;;;;4098049;28;20026;-86
2022/04/07 04:02:33;;;;;;;21.65;5.07;;;7.80;82.10;;;;;;4094655;28;20034;-84
2022/04/07 04:04:34;;;;;;;17.27;4.82;;;7.80;82.20;;;;;;4094614;28;20027;-84
2022/04/07 04:06:35;;;;;;;15.48;4.30;;;7.80;82.10;;;;;;4093598;28;20158;-86
2022/04/07 04:08:35;;;;;;;12.07;4.38;;;7.80;81.90;;;;;;4097689;28;20837;-85
2022/04/07 04:10:36;;;;;;;14.45;4.25;;;7.90;81.90;;;;;;4087882;28;20082;-84
2022/04/07 04:12:37;;;;;;;15.10;4.15;;;7.90;81.80;;;;;;4105149;28;20068;-84
2022/04/07 04:14:38;;;;;;;18.00;4.45;;;7.90;81.70;;;;;;4102688;28;20050;-85
2022/04/07 04:16:39;;;;;;;15.25;4.75;;;7.90;81.70;;;;;;4097680;28;21219;-85
2022/04/07 04:18:40;;;;;;;9.93;4.30;;;7.90;81.70;;;;;;4097553;28;20514;-84
2022/04/07 04:20:43;;;;;;;16.77;4.95;;;7.90;81.70;;;;;;4099200;28;20562;-85
2022/04/07 04:22:44;;;;;;;13.60;4.40;;;8.00;81.60;;;;;;4098844;28;20035;-86
2022/04/07 04:24:44;;;;;;;14.77;4.18;;;8.00;81.50;;;;;;4100444;28;20030;-85
2022/04/07 04:26:45;;;;;;;13.63;4.65;;;8.00;81.40;;;;;;4098389;28;20027;-85
2022/04/07 04:28:46;;;;;;;11.15;3.90;;;8.00;81.30;;;;;;4098149;28;20470;-85
2022/04/07 04:30:46;;;;;;;15.48;3.88;;;8.00;81.30;;;;;;4096472;28;20066;-86
2022/04/07 04:32:47;;;;;;;13.88;3.75;;;8.00;81.20;;;;;;4101823;28;20039;-85
2022/04/07 04:34:48;;;;;;;14.63;3.70;;;8.00;81.10;;;;;;4096516;28;20031;-84
2022/04/07 04:36:49;;;;;;;12.25;4.28;;;8.00;81.10;;;;;;4102070;28;20063;-86
2022/04/07 04:38:49;;;;;;;14.93;4.05;;;8.10;81.20;;;;;;4109610;28;20030;-86
2022/04/07 04:40:50;;;;;;;12.38;3.50;;;8.00;80.90;;;;;;4098705;28;20114;-83
2022/04/07 04:42:51;;;;;;;10.18;2.75;;;8.00;80.90;;;;;;4113015;28;20065;-83
2022/04/07 04:44:51;;;;;;;7.85;2.35;;;8.00;80.80;;;;;;4096709;28;20039;-86
2022/04/07 04:46:52;;;;;;;8.50;2.00;;;8.10;80.60;;;;;;4093725;28;20110;-85
2022/04/07 04:48:53;;;;;;;8.95;1.85;;;8.10;80.50;;;;;;4097205;28;20046;-83
2022/04/07 04:50:55;;;;;;;3.70;1.05;;;8.10;80.30;;;;;;4099316;28;20125;-84
2022/04/07 04:52:56;;;;;;;5.00;1.23;;;8.10;80.00;;;;;;4096275;28;20138;-85
2022/04/07 04:54:57;;;;;;;6.13;1.40;;;8.00;79.60;;;;;;4094282;28;20341;-86
2022/04/07 04:56:57;;;;;;;7.75;1.65;;;8.00;79.50;;;;;;4097580;28;20035;-85
2022/04/07 04:58:58;;;;;;;7.82;1.90;;;8.10;79.60;;;;;;4096622;28;20037;-85
2022/04/07 05:00:59;;;;;;;8.45;2.25;;;8.10;79.50;;;;;;4101162;28;20479;-85
2022/04/07 05:03:00;;;;;;;6.18;1.63;;;7.90;79.40;;;;;;4099383;28;20222;-84
2022/04/07 05:05:00;;;;;;;5.07;1.90;;;8.00;79.60;;;;;;4095499;28;20031;-85
2022/04/07 05:07:01;;;;;;;6.03;1.67;;;8.00;79.60;;;;;;4096508;28;20765;-85
2022/04/07 05:09:02;;;;;;;8.00;1.85;;;7.90;79.60;;;;;;4096911;28;20038;-84
2022/04/07 05:11:02;;;;;;;12.10;1.63;;;8.00;80.40;;;;;;4081414;28;20571;-85
2022/04/07 05:13:03;;;;;;;4.45;1.63;;;8.00;79.70;;;;;;4093968;28;20038;-86
2022/04/07 05:15:06;;;;;;;5.82;1.55;;;7.90;79.60;;;;;;4097460;28;20524;-84
2022/04/07 05:17:07;;;;;;;14.38;2.33;;;7.90;79.60;;;;;;4097715;28;20043;-84
2022/04/07 05:19:07;;;;;;;5.90;1.80;;;7.90;79.60;;;;;;4111744;28;20030;-86
2022/04/07 05:21:08;;;;;;;6.93;1.83;;;7.90;79.60;;;;;;4098528;28;20030;-85
2022/04/07 05:23:09;;;;;;;11.85;1.92;;;7.90;79.50;;;;;;4111696;28;20565;-86
2022/04/07 05:25:10;;;;;;;14.48;2.22;;;7.90;79.50;;;;;;4100609;28;20023;-86
2022/04/07 05:27:11;;;;;;;9.63;1.90;;;7.90;79.40;;;;;;4097687;28;20039;-85
2022/04/07 05:29:12;;;;;;;12.13;1.73;;;7.90;79.40;;;;;;4095885;28;20506;-86
2022/04/07 05:31:13;;;;;;;10.68;2.17;;;7.90;79.40;;;;;;4109507;28;20259;-85
2022/04/07 05:33:13;;;;;;;12.15;2.03;;;7.90;79.40;;;;;;4088249;28;21285;-85
2022/04/07 05:35:15;;;;;;;8.38;1.88;;;7.90;79.30;;;;;;4084481;28;20043;-86
2022/04/07 05:37:17;;;;;;;7.28;1.85;;;8.00;79.30;;;;;;4093641;28;20105;-86
2022/04/07 05:39:18;;;;;;;8.10;2.53;;;8.00;79.40;;;;;;4093225;28;20042;-85
2022/04/07 05:41:19;;;;;;;16.42;2.35;;;8.00;79.30;;;;;;4099942;28;20035;-85
2022/04/07 05:43:19;;;;;;;10.73;2.20;;;7.90;79.20;;;;;;4093481;28;20031;-85
2022/04/07 05:45:20;;;;;;;6.63;1.80;;;8.00;79.30;;;;;;4094147;28;20062;-85
2022/04/07 05:47:21;;;;;;;12.95;2.25;;;7.90;79.10;;;;;;4099587;28;20027;-85
2022/04/07 05:49:22;;;;;;;11.65;2.40;;;7.90;79.10;;;;;;4093841;28;20046;-84
2022/04/07 05:51:23;;;;;;;13.70;2.38;;;7.90;79.10;;;;;;4096293;28;20043;-86
2022/04/07 05:53:23;;;;;;;13.45;2.30;;;7.90;79.00;;;;;;4082535;28;20062;-86
2022/04/07 05:55:24;;;;;;;15.38;2.55;;;7.90;79.10;;;;;;4109883;28;20035;-86
2022/04/07 05:57:30;;;;;;;7.00;1.73;;;8.00;79.20;;;;;;4096563;28;20031;-84
2022/04/07 05:59:30;;;;;;;15.57;2.42;;;7.90;80.00;;;;;;4086211;28;20608;-85
2022/04/07 06:01:31;;;;;;;10.65;1.73;;;7.90;79.30;;;;;;4097708;28;20034;-86
2022/04/07 06:03:32;;;;;;;9.57;2.03;;;7.90;79.40;;;;;;4099174;28;20084;-85
2022/04/07 06:05:32;;;;;;;8.38;2.00;;;8.00;79.50;;;;;;4098449;28;20522;-86
2022/04/07 06:07:33;;;;;;;12.88;2.20;;;8.10;79.50;;;;;;4096708;28;20031;-85
2022/04/07 06:09:35;;;;;;;8.20;2.10;;;8.00;79.40;;;;;;4098714;28;21234;-85
2022/04/07 06:11:35;;;;;;;7.28;2.05;;;8.00;79.30;;;;;;4097858;28;20062;-85
2022/04/07 06:13:38;;;;;;;7.90;2.00;;;8.10;79.30;;;;;;4096617;28;20039;-84
2022/04/07 06:15:39;;;;;;;13.13;2.03;;;8.00;79.20;;;;;;4098431;28;20530;-86
2022/04/07 06:17:46;;;;;;;7.90;1.67;;;8.10;79.10;;;;;;4095705;28;20035;-85
2022/04/07 06:19:46;;;;;;;7.55;1.98;;;8.10;79.20;;;;;;4107697;28;20048;-84
2022/04/07 06:21:47;;;;;;;7.68;1.90;;;8.10;79.20;;;;;;4098360;28;20121;-84
2022/04/07 06:23:48;;;;;;;11.95;2.58;;;8.10;79.20;;;;;;4095603;28;20031;-84
2022/04/07 06:25:48;;;;;;;11.77;2.40;;;8.10;79.20;;;;;;4093870;28;20031;-83
2022/04/07 06:27:49;;;;;;;10.38;1.83;;;8.10;79.30;;;;;;4113126;28;20552;-85
2022/04/07 06:29:55;;;;;;;11.07;2.33;;;8.10;79.20;;;;;;4097661;28;20105;-84
2022/04/07 06:31:55;;;;;;;10.07;2.33;;;8.00;79.10;;;;;;4095757;28;20030;-84
2022/04/07 06:33:56;;;;;;;7.78;2.03;;;8.00;79.10;;;;;;4097923;28;20105;-84
2022/04/07 06:35:57;;;;;;;10.88;2.53;;;8.10;79.20;;;;;;4077255;28;20180;-84
2022/04/07 06:37:57;;;;;;;12.27;2.00;;;8.10;79.20;;;;;;4112224;28;20030;-85
2022/04/07 06:40:03;;;;;;;11.93;2.75;;;8.10;79.20;;;;;;4098091;28;20035;-84
2022/04/07 06:42:04;;;;;;;11.52;2.45;;;8.10;79.10;;;;;;4094871;28;20029;-84
2022/04/07 06:44:05;;;;;;;6.13;1.73;;;8.10;79.20;;;;;;4099292;28;20109;-85
2022/04/07 06:46:06;;;;;;;4.78;0.65;;;8.10;79.10;;;;;;4097452;28;20037;-84
2022/04/07 06:48:08;;;;;;;0.50;0.15;;;8.00;77.30;;;;;;4100196;28;20082;-84
2022/04/07 06:50:14;;;;;;;6.63;0.50;;;7.90;75.10;;;;;;4095379;28;20035;-84
2022/04/07 06:52:15;;;;;;;1.08;0.15;;;7.80;73.40;;;;;;4096645;28;20551;-85
2022/04/07 06:54:15;;;;;;;2.17;0.22;;;7.70;72.60;;;;;;4096571;28;20045;-84
2022/04/07 06:56:16;;;;;;;2.20;0.43;;;7.50;72.50;;;;;;4098807;28;20035;-84
2022/04/07 06:58:17;;;;;;;0.90;0.20;;;7.40;72.10;;;;;;4098802;28;20031;-86
2022/04/07 07:00:20;;;;;;;0.70;0.20;;;7.30;72.50;;;;;;4097941;28;20579;-85
2022/04/07 07:02:21;;;;;;;2.20;0.10;;;7.20;72.90;;;;;;4096499;28;20035;-85
2022/04/07 07:04:22;;;;;;;2.20;0.20;;;7.10;73.20;;;;;;4094362;28;20029;-84
2022/04/07 07:06:22;;;;;;;2.10;0.20;;;6.90;73.50;;;;;;4096363;28;20140;-85
2022/04/07 07:08:23;;;;;;;0.32;0.08;;;6.90;73.70;;;;;;4099589;28;20439;-85
2022/04/07 07:10:28;;;;;;;3.72;0.20;;;6.80;73.90;;;;;;4103908;28;20102;-84
2022/04/07 07:12:28;;;;;;;2.63;0.20;;;6.70;74.10;;;;;;4116149;28;20041;-84
2022/04/07 07:14:29;;;;;;;1.75;0.38;;;6.70;75.10;;;;;;4101556;28;21200;-85
2022/04/07 07:16:30;;;;;;;3.13;0.57;;;6.60;74.60;;;;;;4098035;28;20069;-84
2022/04/07 07:18:30;;;;;;;1.83;0.50;;;6.60;74.80;;;;;;4098246;28;20029;-84
2022/04/07 07:20:31;;;;;;;2.25;0.30;;;6.60;75.00;;;;;;4097306;28;21180;-84
2022/04/07 07:22:32;;;;;;;6.45;1.02;;;6.50;75.10;;;;;;4099310;28;20045;-83
2022/04/07 07:24:32;;;;;;;2.65;0.45;;;6.50;75.30;;;;;;4114873;28;20030;-85
2022/04/07 07:26:34;;;;;;;1.20;0.40;;;6.40;75.30;;;;;;4119824;28;20514;-84
2022/04/07 07:28:35;;;;;;;2.17;0.47;;;6.40;75.60;;;;;;4097701;28;20093;-86
2022/04/07 07:30:36;;;;;;;3.83;0.70;;;6.40;76.50;;;;;;4098919;28;20035;-84
2022/04/07 07:32:40;;;;;;;2.97;0.50;;;6.40;75.90;;;;;;4103010;28;20066;-85
2022/04/07 07:34:41;;;;;;;4.68;0.57;;;6.30;76.10;;;;;;4099403;28;20689;-85
2022/04/07 07:36:41;;;;;;;3.92;0.73;;;6.30;76.40;;;;;;4096622;28;20092;-84
2022/04/07 07:38:42;;;;;;;7.45;0.77;;;6.30;76.60;;;;;;4081815;28;20097;-84
2022/04/07 07:40:43;;;;;;;5.93;1.00;;;6.40;76.80;;;;;;4103975;28;20498;-85
2022/04/07 07:42:44;;;;;;;4.13;0.60;;;6.30;76.90;;;;;;4096485;28;20684;-85
2022/04/07 07:44:44;;;;;;;5.38;0.90;;;6.30;77.10;;;;;;4099821;28;20119;-85
2022/04/07 07:46:45;;;;;;;5.90;0.93;;;6.30;77.20;;;;;;4110241;28;20038;-86
2022/04/07 07:48:46;;;;;;;6.90;1.00;;;6.30;77.30;;;;;;4097714;28;20030;-85
2022/04/07 07:50:46;;;;;;;10.43;1.25;;;6.40;77.70;;;;;;4099068;28;20491;-84
2022/04/07 07:52:48;;;;;;;6.30;1.10;;;6.40;77.90;;;;;;4099661;28;20166;-85
2022/04/07 07:54:49;;;;;;;8.70;1.17;;;6.40;78.00;;;;;;4099541;28;20586;-85
2022/04/07 07:56:56;;;;;;;9.50;1.80;;;6.40;78.20;;;;;;4178393;23;20426;-90
2022/04/07 07:59:11;;;;;;;7.57;1.05;;;6.40;78.60;;;;;;4070862;29;20035;-90
2022/04/07 08:01:12;;;;;;;10.52;1.10;;;6.40;78.60;;;;;;4072487;29;20154;-85
2022/04/07 08:03:27;;;;;;;11.00;1.13;;;6.50;78.90;;;;;;4088598;28;20898;-88
2022/04/07 08:05:37;;;;;;;5.38;0.88;;;6.40;79.10;;;;;;4074611;29;20047;-87
2022/04/07 08:07:41;;;;;;;4.63;0.73;;;6.50;79.30;;;;;;4070991;29;20039;-88
2022/04/07 08:09:42;;;;;;;8.15;1.52;;;6.50;79.20;;;;;;4059177;29;20039;-85
2022/04/07 08:12:03;;;;;;;4.95;0.82;;;6.50;79.20;;;;;;4062702;29;20032;-91
2022/04/07 08:16:31;;;;;;;5.28;0.93;;;6.50;79.10;;;;;;4038926;29;20084;-88
2022/04/07 08:18:31;;;;;;;10.85;1.08;;;6.60;79.00;;;;;;4054551;29;20040;-86
2022/04/07 08:20:32;;;;;;;10.43;1.00;;;6.50;78.90;;;;;;4042956;29;20028;-89
2022/04/07 08:22:33;;;;;;;10.02;1.20;;;6.60;78.90;;;;;;4052096;29;20037;-90
2022/04/07 08:24:36;;;;;;;6.38;1.00;;;6.60;78.80;;;;;;4053225;29;20032;-90
2022/04/07 08:26:36;;;;;;;1.38;0.47;;;6.60;78.40;;;;;;4042174;29;20040;-90
2022/04/07 08:28:37;;;;;;;4.18;0.55;;;6.60;78.20;;;;;;4051472;29;20439;-90
2022/04/07 08:30:38;;;;;;;3.03;0.50;;;6.60;77.70;;;;;;4044075;29;20219;-89
2022/04/07 08:32:39;;;;;;;2.28;0.40;;;6.60;77.50;;;;;;4053907;29;20036;-89
2022/04/07 08:34:39;;;;;;;5.63;0.57;;;6.50;77.30;;;;;;4040692;29;20088;-89
2022/04/07 08:36:42;;;;;;;3.08;0.30;;;6.50;77.30;;;;;;4039806;29;20036;-89
2022/04/07 08:38:43;;;;;;;1.85;0.40;;;6.50;77.30;;;;;;4055166;29;20036;-87
2022/04/07 08:40:43;;;;;;;1.70;0.22;;;6.60;77.20;;;;;;4024382;29;20500;-92
2022/04/07 08:42:44;;;;;;;3.40;0.40;;;6.50;77.00;;;;;;4039908;29;20033;-89
2022/04/07 08:44:45;;;;;;;3.28;0.40;;;6.50;77.00;;;;;;4039092;29;20551;-89
2022/04/07 08:46:53;;;;;;;2.28;0.55;;;6.50;76.90;;;;;;4043079;29;20053;-90
2022/04/07 08:48:56;;;;;;;1.70;0.32;;;6.40;76.60;;;;;;4040669;29;20032;-88
2022/04/07 08:50:57;;;;;;;3.63;0.80;;;6.50;76.70;;;;;;4046641;29;20078;-91
2022/04/07 08:52:58;;;;;;;1.83;0.30;;;6.40;76.60;;;;;;4040261;29;20045;-89
2022/04/07 08:54:59;;;;;;;1.45;0.28;;;6.40;76.60;;;;;;4074140;29;20547;-88
2022/04/07 08:57:01;;;;;;;4.03;0.50;;;6.40;76.60;;;;;;4055768;29;20068;-91
2022/04/07 08:59:01;;;;;;;2.65;0.40;;;6.30;76.60;;;;;;4059200;29;20043;-89
2022/04/07 09:01:03;;;;;;;2.70;0.63;;;6.40;76.70;;;;;;4078605;28;20042;-87
2022/04/07 09:03:04;;;;;;;1.98;0.40;;;6.40;76.70;;;;;;4076120;29;20115;-88
2022/04/07 09:05:10;;;;;;;2.10;0.20;;;6.30;76.60;;;;;;4078804;29;20028;-90
2022/04/07 09:07:14;;;;;;;3.10;0.30;;;6.30;76.60;;;;;;4077500;29;20036;-87
2022/04/07 09:09:19;;;;;;;2.75;0.30;;;6.30;76.70;;;;;;4072667;29;20124;-88
2022/04/07 09:11:21;;;;;;;9.00;0.57;;;6.30;76.60;;;;;;4073050;29;20231;-87
2022/04/07 09:13:21;;;;;;;4.32;0.63;;;6.30;76.60;;;;;;4070301;29;20035;-87
2022/04/07 09:15:25;;;;;;;2.83;0.50;;;6.20;76.60;;;;;;4077416;29;20031;-88
2022/04/07 09:17:27;;;;;;;5.93;0.43;;;6.20;76.60;;;;;;4059426;29;20047;-86
2022/04/07 09:19:29;;;;;;;5.18;0.50;;;6.30;76.70;;;;;;4056978;29;20039;-89
2022/04/07 09:21:36;;;;;;;5.65;0.50;;;6.20;76.70;;;;;;4077393;29;20122;-87
2022/04/07 09:23:41;;;;;;;2.70;0.45;;;6.30;76.80;;;;;;4071211;29;20320;-88
2022/04/07 09:25:46;;;;;;;3.63;0.45;;;6.30;76.90;;;;;;4056687;29;20028;-88
2022/04/07 09:27:48;;;;;;;6.28;0.68;;;6.30;77.00;;;;;;4089009;28;20098;-87
2022/04/07 09:29:54;;;;;;;3.97;0.45;;;6.30;77.10;;;;;;4075262;29;20505;-87
2022/04/07 09:31:55;;;;;;;6.28;1.02;;;6.30;77.10;;;;;;4087299;28;20126;-88
2022/04/07 09:33:57;;;;;;;2.08;0.50;;;6.30;77.20;;;;;;4061467;29;20083;-88
2022/04/07 09:36:10;;;;;;;4.32;0.73;;;6.30;77.10;;;;;;4071929;29;20044;-87
2022/04/07 09:38:12;;;;;;;2.75;0.63;;;6.40;77.20;;;;;;4059282;29;20032;-89
2022/04/07 09:40:17;;;;;;;9.27;0.90;;;6.40;77.30;;;;;;4068854;29;20064;-90
2022/04/07 09:42:25;;;;;;;5.45;1.15;;;6.30;77.40;;;;;;4056138;29;20594;-87
2022/04/07 09:44:26;;;;;;;8.80;1.27;;;6.30;77.40;;;;;;4060920;29;20023;-87
2022/04/07 09:46:34;;;;;;;4.15;0.75;;;6.40;77.60;;;;;;4071909;29;20111;-90
2022/04/07 09:48:36;;;;;;;6.18;1.02;;;6.40;77.80;;;;;;4072960;29;20048;-87
2022/04/07 09:50:38;;;;;;;7.30;1.33;;;6.50;78.10;;;;;;4073025;29;20031;-90
2022/04/07 09:52:40;;;;;;;7.03;1.10;;;6.50;78.40;;;;;;4077594;29;20317;-89
2022/04/07 09:54:43;;;;;;;12.18;1.30;;;6.50;78.50;;;;;;4060950;29;20024;-90
2022/04/07 09:56:46;;;;;;;8.27;1.35;;;6.50;78.50;;;;;;4071408;29;20117;-88
2022/04/07 09:58:48;;;;;;;7.38;1.08;;;6.60;78.60;;;;;;4075385;29;20024;-89
2022/04/07 10:00:49;;;;;;;4.90;0.93;;;6.60;78.60;;;;;;4055862;29;20538;-89
2022/04/07 10:02:50;;;;;;;6.80;1.23;;;6.60;78.60;;;;;;4055079;29;20024;-88
2022/04/07 10:04:51;;;;;;;16.00;1.52;;;6.70;78.90;;;;;;4076629;29;20019;-87
2022/04/07 10:06:57;;;;;;;10.60;1.60;;;6.70;78.80;;;;;;4075043;29;20498;-89
2022/04/07 10:09:00;;;;;;;4.13;0.88;;;6.90;78.90;;;;;;4090326;28;20031;-87
2022/04/07 10:11:02;;;;;;;5.25;1.20;;;6.80;78.80;;;;;;4090406;28;20041;-87
2022/04/07 10:13:04;;;;;;;7.78;1.35;;;6.90;78.80;;;;;;4070893;29;20036;-89
2022/04/07 10:15:06;;;;;;;10.80;1.27;;;6.90;78.80;;;;;;4088407;28;20074;-87
2022/04/07 10:17:10;;;;;;;8.57;1.10;;;6.90;78.50;;;;;;4059478;29;20483;-88
2022/04/07 10:19:16;;;;;;;16.20;1.60;;;7.00;78.40;;;;;;4071335;29;20031;-88
2022/04/07 10:21:48;;;;;;;10.07;1.15;;;7.00;78.20;;;;;;4074757;29;20024;-89
2022/04/07 10:24:28;;;;;;;8.07;1.00;;;7.10;78.20;;;;;;4087287;28;20562;-90
2022/04/07 10:26:29;;;;;;;7.22;1.40;;;7.00;78.30;;;;;;4088001;28;20943;-90
2022/04/07 10:28:33;;;;;;;10.23;1.38;;;7.10;78.30;;;;;;4057656;29;20032;-89
2022/04/07 10:30:55;;;;;;;21.42;2.60;;;7.20;78.30;;;;;;4088819;28;20023;-90
2022/04/07 10:32:58;;;;;;;18.23;4.20;;;7.20;77.90;;;;;;4073339;29;20506;-88
2022/04/07 10:34:59;;;;;;;12.80;2.72;;;7.20;77.70;;;;;;4075384;29;20035;-88
2022/04/07 10:37:06;;;;;;;10.05;1.90;;;7.20;77.80;;;;;;4059544;29;20658;-88
2022/04/07 10:39:13;;;;;;;19.20;2.00;;;7.20;77.80;;;;;;4062136;29;20055;-90
2022/04/07 10:41:38;;;;;;;11.55;2.15;;;7.30;77.90;;;;;;4076934;29;20028;-87
2022/04/07 10:43:42;;;;;;;7.93;1.40;;;7.30;77.80;;;;;;4071509;29;20039;-90